Time;durP1;ratioP1;P1;durP2;ratioP2;P2;SDS_P1;SDS_P2;PMS_P1;PMS_P2;Temp;Humidity;BMP_temperature;BMP_pressure;BME280_temperature;BME280_humidity;BME280_pressure;Samples;Min_cycle;Max_cycle;Signal;HPM_P1;HPM_P2
2022/08/15 04:01:37;;;;;;;6.77;4.90;;;22.50;99.90;;;;;;5497297;23;21013;-76
2022/08/15 04:04:05;;;;;;;9.80;5.37;;;22.50;99.90;;;;;;5011728;28;20447;-76
2022/08/15 04:06:32;;;;;;;6.77;5.20;;;22.50;99.90;;;;;;5012013;28;20469;-76
2022/08/15 04:09:00;;;;;;;5.73;5.23;;;22.40;99.90;;;;;;5011892;28;20466;-76
2022/08/15 04:11:30;;;;;;;7.27;4.70;;;22.40;99.90;;;;;;5011881;28;20482;-76
2022/08/15 04:13:58;;;;;;;6.20;4.50;;;22.30;99.90;;;;;;5011726;28;20469;-76
2022/08/15 04:16:25;;;;;;;9.47;5.00;;;22.30;99.90;;;;;;5034988;23;20501;-75
2022/08/15 04:18:54;;;;;;;6.37;5.10;;;22.40;99.90;;;;;;5011929;28;20537;-75
2022/08/15 04:21:21;;;;;;;5.77;5.20;;;22.40;99.90;;;;;;5011548;28;20451;-75
2022/08/15 04:23:49;;;;;;;5.60;4.70;;;22.40;99.90;;;;;;5011953;28;20457;-75
2022/08/15 04:26:17;;;;;;;7.17;4.97;;;22.40;99.90;;;;;;5011475;28;20475;-75
2022/08/15 04:28:45;;;;;;;8.60;4.87;;;22.40;99.90;;;;;;5011576;28;20454;-75
2022/08/15 04:31:13;;;;;;;6.07;4.50;;;22.40;99.90;;;;;;5011971;28;20473;-75
2022/08/15 04:33:40;;;;;;;4.97;4.47;;;22.40;99.90;;;;;;5011772;28;20454;-75
2022/08/15 04:36:12;;;;;;;4.40;3.83;;;22.30;99.90;;;;;;5011419;28;20487;-76
2022/08/15 04:38:39;;;;;;;8.10;4.80;;;22.30;99.90;;;;;;5015188;28;20926;-76
2022/08/15 04:41:08;;;;;;;4.87;3.80;;;22.30;99.90;;;;;;5015465;28;20450;-76
2022/08/15 04:43:37;;;;;;;7.33;4.50;;;22.20;99.90;;;;;;5015447;28;20512;-76
2022/08/15 04:46:05;;;;;;;4.97;4.03;;;22.30;99.90;;;;;;5015200;28;20478;-76
2022/08/15 04:48:32;;;;;;;5.97;3.80;;;22.30;99.90;;;;;;5015453;28;20450;-76
2022/08/15 04:51:00;;;;;;;5.30;4.23;;;22.30;99.90;;;;;;5015641;28;20461;-76
2022/08/15 04:53:33;;;;;;;5.73;3.60;;;22.30;99.90;;;;;;5015372;28;20454;-75
2022/08/15 04:56:01;;;;;;;3.67;3.33;;;22.20;99.90;;;;;;5014882;28;20524;-75
2022/08/15 04:58:29;;;;;;;5.80;4.20;;;22.20;99.90;;;;;;5015348;28;20450;-75
2022/08/15 05:00:59;;;;;;;4.87;4.00;;;22.20;99.90;;;;;;5015134;28;20462;-75
2022/08/15 05:03:27;;;;;;;6.30;4.07;;;22.30;99.90;;;;;;5014808;28;20486;-75
2022/08/15 05:05:57;;;;;;;5.13;4.20;;;22.20;99.90;;;;;;5014708;28;20541;-75
2022/08/15 05:08:26;;;;;;;4.73;3.70;;;22.20;99.90;;;;;;5014742;28;20457;-75
2022/08/15 05:10:57;;;;;;;6.27;3.77;;;22.20;99.90;;;;;;5015005;28;20462;-75
2022/08/15 05:13:28;;;;;;;5.40;4.43;;;22.20;99.90;;;;;;5015088;28;20450;-75
2022/08/15 05:15:57;;;;;;;6.07;4.17;;;22.20;99.90;;;;;;5014297;28;20486;-75
2022/08/15 05:18:24;;;;;;;5.07;3.83;;;22.10;99.90;;;;;;5014738;28;20465;-75
2022/08/15 05:20:52;;;;;;;5.40;3.57;;;22.10;99.90;;;;;;5014419;28;20455;-75
2022/08/15 05:23:20;;;;;;;7.63;3.83;;;22.10;99.90;;;;;;5014464;28;20494;-75
2022/08/15 05:25:51;;;;;;;5.80;3.93;;;22.10;99.90;;;;;;5014534;28;20976;-75
2022/08/15 05:28:19;;;;;;;5.37;3.70;;;22.10;99.90;;;;;;5014617;28;20821;-75
2022/08/15 05:30:47;;;;;;;6.03;3.77;;;22.20;99.90;;;;;;5014625;28;20466;-75
2022/08/15 05:33:17;;;;;;;4.73;3.60;;;22.20;99.90;;;;;;5014482;28;20457;-75
2022/08/15 05:35:46;;;;;;;3.73;3.33;;;22.20;99.90;;;;;;5014504;28;20873;-75
2022/08/15 05:38:16;;;;;;;5.37;3.83;;;22.20;99.90;;;;;;5014681;28;20553;-75
2022/08/15 05:40:53;;;;;;;7.07;3.47;;;22.20;99.90;;;;;;5014474;28;20461;-75
2022/08/15 05:43:31;;;;;;;6.87;3.70;;;22.20;99.90;;;;;;5013945;28;20491;-75
2022/08/15 05:46:01;;;;;;;6.17;4.10;;;22.10;99.90;;;;;;5013764;28;20485;-75
2022/08/15 05:48:32;;;;;;;4.23;3.60;;;22.10;99.90;;;;;;5014183;28;20822;-75
2022/08/15 05:51:09;;;;;;;6.13;4.00;;;22.00;99.90;;;;;;5014049;28;20459;-75
2022/08/15 05:53:50;;;;;;;4.67;3.43;;;22.00;99.90;;;;;;5013982;28;20451;-75
2022/08/15 05:56:22;;;;;;;5.17;3.40;;;22.00;99.90;;;;;;5013524;28;20569;-75
2022/08/15 05:58:55;;;;;;;5.40;4.20;;;21.90;99.90;;;;;;5014018;28;20461;-75
2022/08/15 06:01:27;;;;;;;7.00;3.90;;;21.90;99.90;;;;;;5014170;28;20485;-75
2022/08/15 06:03:57;;;;;;;9.90;4.10;;;22.00;99.90;;;;;;5013798;28;20553;-75
2022/08/15 06:06:29;;;;;;;6.73;4.30;;;22.00;99.90;;;;;;5013826;28;20478;-75
2022/08/15 06:09:02;;;;;;;8.57;4.00;;;21.80;99.90;;;;;;5013957;28;20446;-75
2022/08/15 06:11:34;;;;;;;5.70;3.87;;;21.80;99.90;;;;;;5013903;28;20473;-75
2022/08/15 06:14:12;;;;;;;6.13;4.03;;;21.70;99.90;;;;;;5013670;28;20447;-75
2022/08/15 06:16:43;;;;;;;6.13;3.50;;;21.70;99.90;;;;;;5013355;28;20490;-75
2022/08/15 06:19:22;;;;;;;7.90;3.90;;;21.70;99.90;;;;;;5013478;28;20455;-75
2022/08/15 06:21:56;;;;;;;8.03;4.10;;;21.70;99.90;;;;;;5013482;28;20439;-75
2022/08/15 06:24:30;;;;;;;4.97;3.23;;;21.70;99.90;;;;;;5013496;28;20465;-75
2022/08/15 06:27:07;;;;;;;8.90;3.37;;;21.80;99.90;;;;;;5013639;28;20478;-75
2022/08/15 06:29:54;;;;;;;4.93;3.30;;;21.70;99.90;;;;;;5013224;28;20450;-75
2022/08/15 06:32:26;;;;;;;6.73;3.60;;;21.70;99.90;;;;;;5013538;28;20457;-75
2022/08/15 06:35:02;;;;;;;5.83;4.07;;;21.70;99.90;;;;;;5013232;28;20435;-75
2022/08/15 06:37:37;;;;;;;11.07;4.20;;;21.70;99.90;;;;;;5013177;28;20460;-75
2022/08/15 06:40:14;;;;;;;6.90;3.23;;;21.80;99.90;;;;;;5012749;28;20457;-75
2022/08/15 06:42:43;;;;;;;5.17;3.83;;;21.80;99.90;;;;;;5013179;28;20482;-75
2022/08/15 06:45:17;;;;;;;5.90;3.50;;;21.90;99.90;;;;;;5012913;28;20478;-75
2022/08/15 06:47:46;;;;;;;5.03;3.20;;;21.90;99.90;;;;;;5013106;28;20454;-75
2022/08/15 06:50:16;;;;;;;7.30;3.10;;;22.00;99.90;;;;;;5013237;28;20454;-75
2022/08/15 06:52:50;;;;;;;6.90;4.10;;;22.00;99.90;;;;;;5012754;28;20455;-75
2022/08/15 06:55:17;;;;;;;6.80;4.03;;;21.90;99.90;;;;;;5012971;28;20533;-75
2022/08/15 06:57:50;;;;;;;7.53;4.00;;;21.90;99.90;;;;;;5013131;28;20466;-75
2022/08/15 07:00:24;;;;;;;8.77;4.07;;;21.90;99.90;;;;;;5012311;28;20453;-75
2022/08/15 07:03:01;;;;;;;4.67;3.63;;;21.90;99.90;;;;;;5012783;28;20475;-75
2022/08/15 07:05:32;;;;;;;3.93;3.20;;;22.00;99.90;;;;;;5012396;28;20986;-75
2022/08/15 07:08:05;;;;;;;6.43;3.23;;;21.90;99.90;;;;;;5012662;28;20927;-75
2022/08/15 07:10:36;;;;;;;4.20;2.83;;;21.90;99.90;;;;;;5012577;28;20459;-75
2022/08/15 07:13:08;;;;;;;3.77;2.83;;;21.80;99.90;;;;;;5012787;28;20804;-75
2022/08/15 07:15:50;;;;;;;3.37;2.93;;;21.90;99.90;;;;;;5011831;28;20573;-75
2022/08/15 07:18:23;;;;;;;7.30;3.50;;;21.90;99.90;;;;;;5012487;28;20976;-75
2022/08/15 07:20:50;;;;;;;4.03;2.90;;;21.80;99.90;;;;;;5012503;28;20455;-75
2022/08/15 07:23:21;;;;;;;6.50;3.07;;;21.90;99.90;;;;;;5012311;28;20874;-75
2022/08/15 07:25:51;;;;;;;2.90;2.50;;;21.90;99.90;;;;;;5012325;28;20477;-75
2022/08/15 07:28:21;;;;;;;3.23;2.90;;;21.90;99.90;;;;;;5012979;28;20809;-75
2022/08/15 07:30:55;;;;;;;3.77;3.20;;;22.00;99.90;;;;;;5012749;28;20465;-75
2022/08/15 07:33:37;;;;;;;5.87;3.27;;;22.00;99.90;;;;;;5012676;28;20445;-75
2022/08/15 07:36:09;;;;;;;4.90;2.80;;;22.00;99.90;;;;;;5012285;28;20986;-75
2022/08/15 07:38:36;;;;;;;5.10;2.93;;;22.00;99.90;;;;;;5012356;28;20674;-75
2022/08/15 07:41:16;;;;;;;7.90;3.20;;;22.00;99.90;;;;;;5012056;28;21009;-75
2022/08/15 07:43:43;;;;;;;4.87;2.93;;;22.00;99.90;;;;;;5012495;28;20475;-75
2022/08/15 07:46:16;;;;;;;4.60;3.10;;;22.00;99.90;;;;;;5012192;28;20479;-75
2022/08/15 07:48:44;;;;;;;4.40;2.70;;;22.10;99.90;;;;;;5012371;28;20440;-75
2022/08/15 07:51:22;;;;;;;4.23;3.60;;;22.10;99.90;;;;;;5012383;28;20584;-75
2022/08/15 07:53:52;;;;;;;4.20;2.77;;;22.10;99.90;;;;;;5012289;28;20431;-75
2022/08/15 07:56:19;;;;;;;3.97;3.10;;;22.20;99.90;;;;;;5011951;28;20478;-75
2022/08/15 07:58:48;;;;;;;5.90;3.37;;;22.20;99.90;;;;;;5011882;28;20817;-75
2022/08/15 08:01:27;;;;;;;4.83;3.10;;;22.20;99.90;;;;;;5011800;28;20462;-75
2022/08/15 08:03:58;;;;;;;3.33;2.70;;;22.20;99.90;;;;;;5011982;28;20494;-75
2022/08/15 08:06:32;;;;;;;4.20;2.80;;;22.30;99.90;;;;;;5012050;28;20474;-75
2022/08/15 08:09:08;;;;;;;2.97;2.67;;;22.30;99.90;;;;;;5011923;28;20434;-75
2022/08/15 08:11:44;;;;;;;4.17;2.70;;;22.40;99.90;;;;;;5014022;28;20431;-75
2022/08/15 08:14:22;;;;;;;3.47;2.70;;;22.40;99.90;;;;;;5015568;28;20965;-75
2022/08/15 08:16:55;;;;;;;3.30;3.00;;;22.60;99.90;;;;;;5015728;28;20509;-75
2022/08/15 08:19:34;;;;;;;5.57;2.70;;;22.70;99.90;;;;;;5015759;28;20501;-75
2022/08/15 08:22:11;;;;;;;4.20;2.90;;;22.80;99.90;;;;;;5015663;28;20502;-75
2022/08/15 08:24:49;;;;;;;4.23;2.90;;;22.80;99.90;;;;;;5015814;28;20490;-75
2022/08/15 08:27:27;;;;;;;4.37;3.10;;;22.80;99.90;;;;;;5015743;28;20509;-75
2022/08/15 08:30:03;;;;;;;4.20;2.77;;;22.80;99.90;;;;;;5015627;28;20876;-75
2022/08/15 08:32:44;;;;;;;3.57;2.90;;;22.80;99.90;;;;;;5015303;28;20465;-75
2022/08/15 08:35:21;;;;;;;6.03;2.80;;;22.80;99.90;;;;;;5015519;28;20842;-75
2022/08/15 08:37:54;;;;;;;3.20;2.80;;;22.90;99.90;;;;;;5015692;28;20442;-75
2022/08/15 08:43:26;;;;;;;4.40;2.63;;;23.30;99.90;;;;;;5015531;28;20484;-75
2022/08/15 08:46:00;;;;;;;2.47;2.20;;;23.40;99.90;;;;;;5015199;28;20815;-75
2022/08/15 08:48:41;;;;;;;3.00;2.00;;;23.50;99.90;;;;;;5015239;28;20451;-75
2022/08/15 08:51:17;;;;;;;4.93;2.53;;;23.60;99.90;;;;;;5015105;28;20454;-75
2022/08/15 08:53:54;;;;;;;3.30;2.60;;;23.80;99.90;;;;;;5015385;28;20438;-75
2022/08/15 08:56:25;;;;;;;3.30;3.00;;;23.90;99.90;;;;;;5014997;28;20528;-75
2022/08/15 08:58:58;;;;;;;4.70;2.67;;;24.00;99.90;;;;;;5015172;28;20533;-75
2022/08/15 09:01:27;;;;;;;7.37;2.93;;;24.00;99.90;;;;;;5015029;28;20447;-75
2022/08/15 09:03:58;;;;;;;3.80;2.90;;;24.10;99.90;;;;;;5014877;28;20482;-75
2022/08/15 09:06:30;;;;;;;5.27;2.87;;;24.10;99.90;;;;;;5015122;28;20478;-75
2022/08/15 09:09:05;;;;;;;6.13;2.80;;;24.10;99.90;;;;;;5014983;28;20469;-75
2022/08/15 09:11:39;;;;;;;4.10;2.77;;;24.10;99.90;;;;;;5014767;28;20936;-75
2022/08/15 09:14:14;;;;;;;5.87;3.70;;;24.00;99.90;;;;;;5014730;28;20443;-75
2022/08/15 09:16:42;;;;;;;5.40;3.33;;;24.00;99.90;;;;;;5014601;28;20489;-75
2022/08/15 09:19:15;;;;;;;5.63;3.60;;;24.00;99.90;;;;;;5014566;28;20459;-75
2022/08/15 09:21:43;;;;;;;3.67;3.37;;;24.10;99.90;;;;;;5014883;28;20441;-75
2022/08/15 09:24:11;;;;;;;8.20;2.80;;;24.20;99.90;;;;;;5013498;28;20529;-75
2022/08/15 09:26:45;;;;;;;5.20;2.90;;;24.30;99.90;;;;;;5014453;28;20490;-75
2022/08/15 09:29:22;;;;;;;8.43;2.90;;;24.40;99.90;;;;;;5014656;28;20455;-76
2022/08/15 09:32:10;;;;;;;3.40;3.10;;;24.50;99.90;;;;;;5014355;28;20512;-75
2022/08/15 09:35:04;;;;;;;3.50;2.93;;;24.60;99.90;;;;;;5014220;28;20458;-75
2022/08/15 09:37:54;;;;;;;3.80;3.30;;;24.60;99.90;;;;;;5010412;28;20469;-75
2022/08/15 09:40:36;;;;;;;4.60;3.00;;;24.70;99.90;;;;;;4993840;28;20467;-75
2022/08/15 09:43:31;;;;;;;6.63;3.07;;;24.90;99.90;;;;;;5014225;28;20494;-75
2022/08/15 09:46:15;;;;;;;4.37;3.20;;;25.00;99.90;;;;;;5013488;28;20493;-75
2022/08/15 09:48:59;;;;;;;6.83;3.17;;;25.30;99.90;;;;;;5014172;28;20830;-75
2022/08/15 09:51:57;;;;;;;3.20;2.60;;;25.60;99.90;;;;;;5014252;28;20529;-75
2022/08/15 09:54:26;;;;;;;4.00;2.80;;;25.70;99.90;;;;;;5013976;28;20486;-75
2022/08/15 09:57:19;;;;;;;5.10;2.53;;;25.80;99.90;;;;;;5014099;28;20479;-75
2022/08/15 09:59:51;;;;;;;3.10;2.80;;;26.00;99.90;;;;;;5013955;28;20814;-76
2022/08/15 10:02:22;;;;;;;5.00;2.77;;;25.90;99.90;;;;;;5013593;28;20449;-75
2022/08/15 10:05:10;;;;;;;2.83;2.57;;;25.80;99.90;;;;;;5013734;28;20482;-75
2022/08/15 10:07:47;;;;;;;3.13;2.70;;;25.90;99.90;;;;;;5013901;28;20803;-75
2022/08/15 10:10:19;;;;;;;4.23;2.90;;;26.00;99.90;;;;;;5014263;28;20461;-75
2022/08/15 10:13:32;;;;;;;3.10;2.80;;;26.10;99.90;;;;;;5013825;28;20516;-75
2022/08/15 10:16:00;;;;;;;4.33;2.73;;;26.20;99.90;;;;;;4989825;28;20490;-75
2022/08/15 10:19:08;;;;;;;4.10;2.70;;;26.30;99.90;;;;;;5013685;28;20462;-73
2022/08/15 10:21:39;;;;;;;3.70;2.93;;;26.10;99.90;;;;;;5013546;28;21017;-72
2022/08/15 10:24:24;;;;;;;8.80;2.50;;;26.10;99.90;;;;;;5013446;28;20565;-72
2022/08/15 10:27:22;;;;;;;5.70;2.50;;;26.00;99.90;;;;;;5013406;28;20475;-73
2022/08/15 10:29:53;;;;;;;5.20;2.43;;;25.90;99.90;;;;;;5013684;28;20819;-75
2022/08/15 10:32:26;;;;;;;3.27;2.20;;;26.00;99.90;;;;;;5013617;28;20458;-74
2022/08/15 10:35:02;;;;;;;4.57;2.17;;;26.00;99.90;;;;;;5013116;28;20800;-74
2022/08/15 10:37:32;;;;;;;4.63;2.10;;;26.10;99.90;;;;;;5013266;28;20458;-74
2022/08/15 10:40:20;;;;;;;3.30;2.30;;;26.10;99.90;;;;;;5013496;28;20860;-74
2022/08/15 10:42:55;;;;;;;3.40;2.50;;;26.20;99.90;;;;;;5013343;28;20939;-75
2022/08/15 10:45:33;;;;;;;3.50;2.00;;;26.50;99.90;;;;;;5012955;28;20498;-74
2022/08/15 10:48:11;;;;;;;5.70;2.60;;;26.60;99.90;;;;;;5012948;28;20545;-74
2022/08/15 10:50:51;;;;;;;3.20;2.23;;;26.80;99.90;;;;;;5013172;28;20461;-75
2022/08/15 10:53:31;;;;;;;3.37;2.20;;;27.10;99.90;;;;;;5013394;28;20526;-75
2022/08/15 10:56:08;;;;;;;2.67;2.30;;;28.10;99.90;;;;;;5012741;28;20474;-75
2022/08/15 10:58:35;;;;;;;7.53;1.93;;;28.10;99.90;;;;;;5013070;28;20498;-75
2022/08/15 11:01:09;;;;;;;4.37;2.10;;;28.20;99.90;;;;;;5013216;28;20481;-75
2022/08/15 11:03:44;;;;;;;2.60;2.20;;;28.10;99.90;;;;;;5013065;28;20566;-74
2022/08/15 11:06:14;;;;;;;2.30;2.10;;;28.30;99.90;;;;;;5012424;28;20470;-75
2022/08/15 11:08:46;;;;;;;3.00;1.90;;;28.40;99.90;;;;;;5012768;28;20462;-75
2022/08/15 11:11:14;;;;;;;3.10;2.00;;;28.90;99.90;;;;;;5012823;28;20935;-75
2022/08/15 11:13:43;;;;;;;2.80;1.77;;;29.50;99.90;;;;;;5012846;28;20538;-75
2022/08/15 11:16:14;;;;;;;1.83;1.73;;;29.60;99.90;;;;;;5012406;28;20493;-75
2022/08/15 11:18:56;;;;;;;2.90;2.10;;;29.60;99.90;;;;;;5012630;28;20455;-73
2022/08/15 11:21:32;;;;;;;3.20;2.00;;;29.60;99.90;;;;;;5012451;28;20451;-73
2022/08/15 11:24:03;;;;;;;5.33;2.20;;;29.50;99.90;;;;;;5012263;28;20492;-73
2022/08/15 11:26:32;;;;;;;4.40;2.00;;;29.30;99.90;;;;;;5012457;28;20482;-73
2022/08/15 11:29:10;;;;;;;2.93;2.03;;;29.00;99.90;;;;;;5012568;28;20458;-73
2022/08/15 11:31:45;;;;;;;3.27;2.07;;;29.00;99.90;;;;;;5012292;28;20455;-74
2022/08/15 11:34:26;;;;;;;4.33;2.17;;;29.00;99.90;;;;;;5012528;28;20452;-75
2022/08/15 11:36:57;;;;;;;3.77;2.23;;;28.90;99.90;;;;;;5012444;28;20518;-75
2022/08/15 11:39:28;;;;;;;4.13;2.00;;;28.70;99.90;;;;;;5012418;28;20466;-75
2022/08/15 11:41:58;;;;;;;2.83;2.20;;;28.70;99.90;;;;;;5012255;28;20943;-75
2022/08/15 11:44:31;;;;;;;2.60;2.40;;;28.80;99.90;;;;;;5012030;28;20487;-75
2022/08/15 11:46:58;;;;;;;5.40;2.80;;;28.90;99.90;;;;;;5011754;28;21016;-75
2022/08/15 11:49:33;;;;;;;3.47;2.33;;;29.50;99.90;;;;;;5012536;28;20458;-75
2022/08/15 11:52:05;;;;;;;3.13;1.93;;;29.70;98.80;;;;;;5012142;28;21008;-76
2022/08/15 11:54:32;;;;;;;3.10;2.20;;;29.50;98.50;;;;;;5011826;28;20531;-74
2022/08/15 11:57:01;;;;;;;2.90;2.23;;;29.40;99.00;;;;;;5012027;28;20540;-75
2022/08/15 11:59:31;;;;;;;3.23;2.03;;;29.50;98.20;;;;;;5012335;28;20481;-75
2022/08/15 12:02:14;;;;;;;6.13;2.27;;;29.70;99.50;;;;;;5012729;28;20469;-75
2022/08/15 12:04:45;;;;;;;2.90;2.10;;;29.80;98.50;;;;;;5012198;28;20470;-75
2022/08/15 12:07:16;;;;;;;4.53;2.40;;;29.80;98.20;;;;;;5011929;28;20450;-75
2022/08/15 12:09:54;;;;;;;3.57;2.00;;;29.80;98.00;;;;;;5012557;28;20459;-75
2022/08/15 12:12:30;;;;;;;4.00;2.30;;;29.80;97.50;;;;;;5011987;28;20472;-74
2022/08/15 12:15:07;;;;;;;4.60;2.40;;;29.80;98.40;;;;;;5011783;28;20441;-75
2022/08/15 12:17:34;;;;;;;2.30;2.10;;;29.90;97.90;;;;;;5011929;28;20490;-75
2022/08/15 12:20:04;;;;;;;2.83;2.30;;;29.80;96.80;;;;;;5011810;28;20467;-75
2022/08/15 12:22:34;;;;;;;4.10;2.27;;;29.70;97.40;;;;;;5012349;28;20525;-74
2022/08/15 12:25:03;;;;;;;2.60;1.97;;;29.60;97.30;;;;;;5011857;28;20505;-75
2022/08/15 12:27:30;;;;;;;5.00;1.80;;;29.50;97.30;;;;;;5012069;28;20454;-74
2022/08/15 12:29:57;;;;;;;3.50;1.90;;;29.50;98.20;;;;;;5011712;28;20462;-75
2022/08/15 12:32:24;;;;;;;3.57;2.40;;;29.70;98.00;;;;;;5011545;28;20939;-75
2022/08/15 12:34:54;;;;;;;2.10;1.83;;;29.90;97.10;;;;;;5011555;28;20487;-75
2022/08/15 12:37:25;;;;;;;5.73;2.47;;;30.00;97.70;;;;;;5011673;28;20466;-75
2022/08/15 12:39:54;;;;;;;3.90;2.17;;;30.10;97.40;;;;;;5011763;28;20482;-75
2022/08/15 12:42:25;;;;;;;3.43;2.23;;;30.20;95.90;;;;;;5011821;28;20470;-74
2022/08/15 12:44:55;;;;;;;2.93;2.40;;;30.10;95.80;;;;;;5011582;28;20974;-75
2022/08/15 12:47:22;;;;;;;3.63;2.20;;;30.10;96.00;;;;;;5011535;28;20458;-74
2022/08/15 12:49:50;;;;;;;3.30;2.40;;;30.10;95.90;;;;;;5011562;28;20476;-74
2022/08/15 12:52:19;;;;;;;2.90;1.87;;;30.10;95.40;;;;;;5011870;28;20443;-74
2022/08/15 12:54:48;;;;;;;3.50;2.37;;;30.00;96.30;;;;;;5011294;28;20451;-74
2022/08/15 12:57:16;;;;;;;6.60;2.27;;;30.10;96.80;;;;;;5011339;28;20466;-74
2022/08/15 12:59:43;;;;;;;2.87;2.07;;;30.20;95.70;;;;;;5015126;28;20458;-75
2022/08/15 13:02:12;;;;;;;3.03;2.13;;;30.20;95.90;;;;;;5015199;28;20457;-74
2022/08/15 13:04:43;;;;;;;4.90;2.60;;;30.40;95.70;;;;;;5014636;28;21121;-74
2022/08/15 13:07:12;;;;;;;5.90;2.20;;;30.50;95.60;;;;;;5014939;28;20989;-73
2022/08/15 13:09:39;;;;;;;6.60;2.20;;;30.50;95.80;;;;;;5014638;28;20974;-74
2022/08/15 13:12:08;;;;;;;4.40;2.43;;;30.60;95.20;;;;;;5015218;28;20553;-73
2022/08/15 13:14:34;;;;;;;3.30;2.30;;;30.60;94.70;;;;;;5014445;28;21030;-73
2022/08/15 13:17:02;;;;;;;3.67;2.27;;;30.80;94.30;;;;;;5014538;28;20495;-74
2022/08/15 13:19:31;;;;;;;3.10;2.47;;;31.10;94.40;;;;;;5014789;28;20467;-73
2022/08/15 13:24:55;;;;;;;4.10;2.37;;;31.20;94.80;;;;;;5013399;28;20479;-73
2022/08/15 13:27:23;;;;;;;3.40;2.43;;;31.30;93.90;;;;;;5014821;28;20461;-74
2022/08/15 13:29:50;;;;;;;3.23;2.13;;;31.20;93.90;;;;;;5014805;28;20457;-74
2022/08/15 13:32:17;;;;;;;3.80;2.40;;;31.10;93.90;;;;;;5014741;28;20485;-74
2022/08/15 13:34:43;;;;;;;3.50;2.50;;;31.00;93.20;;;;;;5013794;28;20455;-73
2022/08/15 13:37:11;;;;;;;2.80;2.47;;;30.80;93.20;;;;;;5014669;28;20466;-73
2022/08/15 13:39:38;;;;;;;2.40;2.20;;;30.70;94.10;;;;;;5014515;28;20513;-73
2022/08/15 13:42:06;;;;;;;7.27;2.43;;;30.60;94.00;;;;;;5014489;28;20451;-73
2022/08/15 13:44:36;;;;;;;3.87;2.60;;;30.60;94.30;;;;;;5014049;28;20497;-74
2022/08/15 13:47:05;;;;;;;2.83;2.30;;;30.60;94.00;;;;;;5014104;28;20577;-74
2022/08/15 13:49:36;;;;;;;3.60;2.30;;;30.50;94.30;;;;;;5014108;28;20450;-74
2022/08/15 13:52:04;;;;;;;3.23;2.70;;;30.60;94.70;;;;;;5014151;28;20934;-73
2022/08/15 13:54:30;;;;;;;3.20;2.33;;;30.60;94.20;;;;;;5013922;28;20450;-74
2022/08/15 13:56:57;;;;;;;2.40;2.20;;;30.60;94.10;;;;;;5014188;28;20479;-74
2022/08/15 13:59:24;;;;;;;2.87;2.40;;;30.60;94.30;;;;;;5014001;28;20521;-74
2022/08/15 14:01:53;;;;;;;3.40;2.37;;;30.70;94.40;;;;;;5013859;28;20542;-74
2022/08/15 14:04:26;;;;;;;4.53;2.37;;;30.70;93.80;;;;;;5013880;28;20463;-73
2022/08/15 14:06:53;;;;;;;3.10;2.40;;;30.70;94.40;;;;;;5014135;28;20824;-74
2022/08/15 14:09:21;;;;;;;6.90;2.63;;;30.70;94.60;;;;;;5013530;28;20464;-73
2022/08/15 14:11:48;;;;;;;3.60;2.43;;;30.80;94.90;;;;;;5014260;28;20462;-74
2022/08/15 14:14:15;;;;;;;5.40;2.97;;;30.80;93.40;;;;;;5013339;28;20466;-74
2022/08/15 14:16:45;;;;;;;2.83;2.13;;;30.70;92.90;;;;;;5013561;28;20574;-73
2022/08/15 14:19:15;;;;;;;2.73;2.30;;;30.60;93.70;;;;;;5013658;28;20936;-74
2022/08/15 14:21:44;;;;;;;5.20;2.60;;;30.60;93.80;;;;;;5014015;28;20447;-73
2022/08/15 14:24:11;;;;;;;4.00;2.50;;;30.60;94.20;;;;;;5013807;28;20467;-73
2022/08/15 14:26:41;;;;;;;5.80;2.87;;;30.70;94.20;;;;;;5013189;28;20572;-73
2022/08/15 14:29:11;;;;;;;10.77;2.90;;;30.60;93.20;;;;;;5013682;28;20451;-74
2022/08/15 14:31:38;;;;;;;4.20;2.77;;;30.60;94.00;;;;;;5013711;28;20431;-74
2022/08/15 14:34:07;;;;;;;3.40;2.53;;;30.70;94.10;;;;;;5013187;28;20486;-74
2022/08/15 14:36:35;;;;;;;3.23;2.63;;;30.80;93.20;;;;;;5013662;28;20471;-74
2022/08/15 14:39:03;;;;;;;2.87;2.20;;;30.80;93.40;;;;;;5013465;28;20458;-75
2022/08/15 14:41:30;;;;;;;5.43;2.77;;;30.60;92.80;;;;;;5013397;28;20501;-74
2022/08/15 14:43:58;;;;;;;3.13;2.83;;;30.30;93.00;;;;;;5013361;28;20447;-74
2022/08/15 14:46:26;;;;;;;5.47;2.83;;;30.20;93.80;;;;;;5012979;28;21074;-73
2022/08/15 14:48:55;;;;;;;7.57;2.60;;;30.10;93.60;;;;;;5013452;28;20962;-74
2022/08/15 14:51:28;;;;;;;4.57;2.80;;;30.10;93.90;;;;;;5013245;28;20469;-75
2022/08/15 14:53:57;;;;;;;5.63;2.43;;;30.20;94.20;;;;;;5012707;28;20943;-74
2022/08/15 14:56:24;;;;;;;5.50;3.20;;;30.20;93.70;;;;;;5012898;28;20481;-73
2022/08/15 14:58:51;;;;;;;2.80;2.60;;;30.10;93.40;;;;;;5012899;28;20494;-74
2022/08/15 15:01:20;;;;;;;5.03;2.67;;;29.90;93.60;;;;;;5012774;28;20455;-74
2022/08/15 15:03:50;;;;;;;4.30;2.60;;;29.70;93.80;;;;;;5012613;28;20987;-73
2022/08/15 15:06:20;;;;;;;3.30;2.67;;;29.60;93.50;;;;;;5012076;28;20499;-74
2022/08/15 15:08:47;;;;;;;6.73;2.80;;;29.30;93.60;;;;;;5013165;28;20529;-74
2022/08/15 15:11:16;;;;;;;5.93;2.70;;;29.20;94.00;;;;;;5012835;28;20447;-74
2022/08/15 15:13:43;;;;;;;3.03;2.70;;;29.00;93.90;;;;;;5012962;28;20458;-74
2022/08/15 15:16:11;;;;;;;3.90;3.00;;;28.90;93.90;;;;;;5012060;28;20490;-73
2022/08/15 15:18:38;;;;;;;8.57;3.17;;;28.60;94.20;;;;;;5012342;28;20501;-73
2022/08/15 15:21:06;;;;;;;5.57;3.10;;;28.40;95.20;;;;;;5011923;28;20466;-75
2022/08/15 15:23:33;;;;;;;5.90;3.47;;;28.00;96.20;;;;;;5012525;28;20597;-74
2022/08/15 15:26:01;;;;;;;5.20;3.30;;;27.70;96.60;;;;;;5012001;28;20506;-74
2022/08/15 15:28:30;;;;;;;7.60;3.00;;;27.50;96.80;;;;;;5012755;28;20451;-74
2022/08/15 15:30:59;;;;;;;13.40;3.10;;;27.20;97.70;;;;;;5012845;28;20482;-74
2022/08/15 15:33:26;;;;;;;6.57;2.30;;;26.70;98.20;;;;;;5012158;28;20463;-73
2022/08/15 15:35:53;;;;;;;9.17;2.40;;;26.20;98.00;;;;;;5012392;28;20521;-73
2022/08/15 15:38:20;;;;;;;4.47;2.20;;;25.70;98.50;;;;;;5012695;28;20840;-74
2022/08/15 15:40:48;;;;;;;4.20;2.13;;;25.30;98.90;;;;;;5012556;28;20447;-74
2022/08/15 15:43:14;;;;;;;3.13;1.80;;;25.00;99.30;;;;;;5012275;28;20458;-74
2022/08/15 15:45:43;;;;;;;4.00;1.60;;;24.90;99.60;;;;;;5011662;28;20490;-74
2022/08/15 15:48:11;;;;;;;4.03;1.50;;;24.70;99.50;;;;;;5011956;28;20465;-74
2022/08/15 15:50:38;;;;;;;7.90;1.80;;;24.50;99.30;;;;;;5012459;28;20466;-74
2022/08/15 15:53:16;;;;;;;4.30;1.83;;;24.30;99.90;;;;;;5012070;28;20554;-74
2022/08/15 15:55:43;;;;;;;3.33;1.40;;;24.10;99.90;;;;;;5011875;28;20470;-74
2022/08/15 15:58:10;;;;;;;5.47;1.40;;;24.00;99.90;;;;;;5011952;28;20939;-74
2022/08/15 16:00:36;;;;;;;4.70;1.93;;;24.10;99.90;;;;;;5011887;28;20470;-74
2022/08/15 16:03:06;;;;;;;1.50;1.10;;;23.90;99.90;;;;;;5012082;28;20486;-74
2022/08/15 16:05:36;;;;;;;4.77;1.70;;;23.90;99.90;;;;;;5011357;28;20828;-76
2022/08/15 16:08:03;;;;;;;2.50;1.63;;;23.80;99.90;;;;;;5012015;28;20458;-74
2022/08/15 16:10:38;;;;;;;3.10;1.70;;;23.80;99.90;;;;;;5012067;28;20459;-74
2022/08/15 16:13:14;;;;;;;3.23;1.50;;;23.70;99.90;;;;;;5012161;28;20441;-75
2022/08/15 16:15:47;;;;;;;1.87;1.40;;;23.70;99.90;;;;;;5034314;23;20527;-74
2022/08/15 16:18:22;;;;;;;2.20;1.60;;;23.60;99.90;;;;;;5011869;28;20490;-74
2022/08/15 16:20:53;;;;;;;2.03;1.67;;;23.50;99.90;;;;;;5011833;28;20981;-74
2022/08/15 16:23:26;;;;;;;2.10;1.90;;;23.50;99.90;;;;;;5011371;28;20459;-75
2022/08/15 16:25:57;;;;;;;1.77;1.30;;;23.50;99.90;;;;;;5011670;28;20498;-74
2022/08/15 16:28:32;;;;;;;2.30;1.37;;;23.70;99.90;;;;;;5011649;28;21010;-74
2022/08/15 16:31:05;;;;;;;1.60;1.33;;;23.80;99.90;;;;;;5011898;28;20445;-74
2022/08/15 16:33:38;;;;;;;3.10;2.30;;;23.90;99.90;;;;;;5015166;28;20474;-74
2022/08/15 16:36:11;;;;;;;1.50;1.40;;;23.90;99.90;;;;;;5015061;28;21016;-74
2022/08/15 16:38:44;;;;;;;1.57;1.40;;;24.00;99.90;;;;;;5015540;28;20458;-79
2022/08/15 16:41:19;;;;;;;8.93;1.57;;;24.00;99.90;;;;;;5015840;28;20442;-74
2022/08/15 16:43:49;;;;;;;3.50;1.87;;;24.00;99.90;;;;;;5015154;28;20455;-77
2022/08/15 16:46:30;;;;;;;2.40;1.47;;;24.00;99.90;;;;;;5014817;28;20494;-77
2022/08/15 16:49:08;;;;;;;7.93;3.47;;;24.10;99.90;;;;;;5015372;28;20492;-74
2022/08/15 16:51:45;;;;;;;5.00;2.37;;;24.00;99.90;;;;;;5015157;28;20458;-78
2022/08/15 16:54:29;;;;;;;3.50;2.80;;;24.10;99.90;;;;;;5015096;28;20464;-75
2022/08/15 16:57:04;;;;;;;3.77;2.50;;;24.10;99.90;;;;;;5015175;28;20526;-75
2022/08/15 16:59:42;;;;;;;4.63;2.60;;;24.10;99.90;;;;;;5015102;28;20461;-78
2022/08/15 17:02:25;;;;;;;3.43;2.93;;;24.00;99.90;;;;;;5015151;28;20538;-77
2022/08/15 17:05:12;;;;;;;8.70;3.07;;;24.00;99.90;;;;;;5014777;28;20542;-75
2022/08/15 17:07:48;;;;;;;6.40;3.63;;;23.80;99.90;;;;;;5015058;28;20443;-75
2022/08/15 17:10:31;;;;;;;4.70;3.40;;;23.80;99.90;;;;;;5015220;28;20441;-78
2022/08/15 17:13:08;;;;;;;4.40;3.20;;;23.70;99.90;;;;;;5014943;28;20641;-76
2022/08/15 17:15:45;;;;;;;4.73;3.27;;;23.70;99.90;;;;;;5014251;28;20573;-78
2022/08/15 17:18:27;;;;;;;7.53;3.77;;;23.60;99.90;;;;;;5014782;28;20896;-75